In Rescue
 
Open Full Screen Window  High Contrast Mode
Wind Gusting 21 knots
14
April 19, 2021 7:58 PM EDT
Weather Information
Wind Direction
  290 °
Wind Speed
  14 kt (16 mph)
Wind Gust
  21 kt (24 mph)
Altimeter
29.81 in
Visibility
10 SM
Temperature
07° C
45° F
Dewpoint
-02° C
28° F
Humidity
53%
Sky Condition
Overcast @ 11,000 ft
Broken @ 6,000 ft
Scattered @ 4,400 ft
VFR

METAR KHYX 192358Z AUTO 29014G21KT 10SM SCT044 BKN060 OVC110 07/M02 A2981 RMK AO2 T00731023 10101 20073

FAA Disclaimer: The data displayed is for advisory purposes only and is not to be used for flight planning or operations.